Date,TemperatureHighF,TemperatureAvgF,TemperatureLowF,DewpointHighF,DewpointAvgF,DewpointLowF,HumidityHigh,HumidityAvg,HumidityLow,PressureMaxIn,PressureMinIn,WindSpeedMaxMPH,WindSpeedAvgMPH,GustSpeedMaxMPH,PrecipitationSumIn
2013-1-2,53.6,50.2,49.4,34.8,32.5,31.9,51,51,49,0.00,0.00,2,2,7,0.00
2013-1-8,61.3,61.3,61.3,49.6,49.6,49.6,65,65,65,0.00,40.00,1,1,6,0.00
2013-1-23,50.0,50.0,50.0,45.2,45.2,45.2,83,83,83,0.00,40.00,2,2,4,0.00
2013-2-1,55.3,55.3,55.3,43.6,43.6,43.6,65,65,65,0.00,40.00,1,1,4,0.00
2013-2-7,53.0,53.0,53.0,30.6,30.6,30.6,42,42,42,0.00,40.00,7,7,17,0.00
2013-2-8,41.1,41.1,41.1,38.5,38.5,38.5,91,91,91,0.00,40.00,2,2,5,0.00
2013-2-18,39.9,39.9,39.9,38.6,38.6,38.6,95,95,95,0.00,40.00,3,3,6,0.00
2013-2-19,41.8,41.8,41.8,40.2,40.2,40.2,94,94,94,0.00,40.00,1,1,4,0.00
2013-2-26,27.8,27.8,27.8,26.1,26.1,26.1,93,93,93,0.00,40.00,1,1,5,0.00
2013-3-6,46.8,46.8,46.8,42.5,42.5,42.5,85,85,85,0.00,40.00,9,9,22,0.00
2013-3-13,60.4,49.0,37.6,49.7,42.8,35.8,93,80,68,0.00,0.00,2,1,4,0.00
2013-3-15,74.3,58.6,39.0,53.2,47.6,37.3,94,70,42,0.00,0.00,5,2,13,0.00
2013-3-16,75.0,53.9,36.9,49.9,41.1,28.8,94,69,18,0.00,0.00,9,3,21,0.00
2013-3-17,66.9,53.7,36.1,45.0,39.6,33.0,90,62,35,0.00,0.00,6,3,16,0.00
2013-3-18,66.8,49.2,34.9,46.8,40.9,33.0,94,75,44,0.00,0.00,8,2,15,0.00
2013-3-19,60.3,50.4,41.1,47.4,43.2,38.7,92,78,56,0.00,0.00,4,1,12,0.00
2013-3-20,59.4,51.3,45.6,54.7,48.5,43.7,94,90,80,0.00,0.00,6,3,14,0.07
2013-3-21,64.0,49.5,34.1,46.0,40.5,32.4,95,75,44,0.00,0.00,6,2,13,0.54
2013-3-22,66.0,48.2,31.6,41.7,35.7,29.3,94,68,26,0.00,0.00,6,2,14,0.00
2013-3-23,66.5,48.4,33.3,44.0,36.0,30.3,94,68,26,0.00,0.00,8,2,16,0.00
2013-3-24,66.8,49.9,34.9,47.0,41.0,32.9,94,74,45,0.00,0.00,6,2,15,0.00
2013-3-25,57.5,46.0,35.9,46.5,41.3,34.0,96,85,62,0.00,0.00,8,2,16,0.00
2013-3-26,60.8,48.5,38.7,47.0,42.6,36.8,95,81,57,0.00,0.00,7,2,18,0.00
2013-3-27,58.7,50.4,43.4,51.8,46.7,40.9,93,88,73,0.00,0.00,7,2,13,0.00
2013-3-28,62.2,53.7,49.1,53.5,49.8,47.1,93,87,69,0.00,0.00,5,2,10,0.00
2013-3-29,74.3,57.0,47.8,55.0,50.1,46.5,96,80,44,0.00,0.00,10,3,20,0.07
2013-3-30,63.5,54.8,49.8,53.6,49.9,47.4,93,84,68,0.00,0.00,9,3,21,0.00
2013-3-31,60.9,55.4,51.6,54.8,52.2,49.5,94,89,74,0.00,0.00,5,2,16,0.03
2013-4-1,62.6,55.0,46.7,54.1,50.2,44.0,95,85,63,0.00,0.00,7,2,14,0.79
2013-4-2,63.7,52.4,45.2,54.5,48.0,43.7,96,86,68,0.00,0.00,5,2,14,0.00
2013-4-3,72.3,52.7,45.3,56.2,48.3,44.1,96,87,57,0.00,0.00,8,3,18,0.00
2013-4-4,57.9,53.1,48.2,55.3,51.1,46.1,95,93,91,0.00,0.00,6,2,16,0.00
2013-4-5,62.0,55.4,50.2,53.4,51.2,48.6,95,86,68,0.00,0.00,7,3,16,0.35
2013-4-6,52.8,51.9,51.0,51.0,49.7,48.6,94,92,90,0.00,0.00,2,1,6,0.00
2013-4-10,84.4,75.9,62.9,55.5,49.1,39.6,58,41,21,0.00,0.00,10,5,25,0.00
2013-4-11,75.8,61.0,45.2,50.0,45.1,41.3,87,59,32,0.00,0.00,7,3,21,0.00
2013-4-12,73.6,54.8,39.5,52.0,45.0,37.6,93,72,32,0.00,0.00,6,2,15,0.00
2013-4-13,73.0,56.1,40.7,47.7,41.9,32.8,94,65,25,0.00,0.00,8,3,19,0.00
2013-4-14,70.8,53.0,36.9,43.7,38.6,26.0,91,63,24,0.00,0.00,14,5,39,0.00
2013-4-15,59.1,51.1,39.1,42.8,34.2,26.1,90,56,31,0.00,0.00,10,5,27,0.00
2013-4-16,67.7,50.9,32.7,39.6,31.7,21.3,92,56,21,0.00,0.00,6,3,16,0.00
2013-4-17,71.3,52.8,33.3,43.8,34.7,25.1,93,59,19,0.00,0.00,5,2,15,0.00
2013-4-18,73.8,55.2,37.2,46.4,39.6,34.6,92,64,25,0.00,0.00,8,3,16,0.00
2013-4-19,67.5,47.4,39.5,50.9,42.6,37.7,93,84,55,0.00,0.00,2,1,6,0.00
2013-4-23,77.6,60.6,39.6,49.4,41.3,17.4,93,58,12,0.00,0.00,10,5,21,0.00
2013-4-24,54.6,49.2,43.4,47.6,45.0,42.1,96,86,75,0.00,0.00,13,6,25,0.00
2013-4-25,60.4,53.6,45.0,48.0,46.3,41.9,89,77,63,0.00,0.00,8,4,19,0.00
2013-4-26,64.5,51.5,40.1,51.8,45.8,38.1,93,82,61,0.00,0.00,5,2,14,0.00
2013-4-27,65.2,53.1,45.6,53.0,47.9,43.0,95,84,63,0.00,0.00,6,2,15,0.00
2013-4-28,81.5,55.4,39.4,53.1,45.6,37.4,95,74,37,0.00,0.00,6,2,12,0.00
2013-4-29,86.1,66.9,47.5,56.7,49.8,44.8,93,60,29,0.00,0.00,6,2,12,0.00
2013-4-30,86.0,65.6,46.0,49.1,42.1,26.1,91,51,12,0.00,0.00,6,2,15,0.00
2013-5-1,84.1,63.0,44.3,46.8,35.1,17.1,86,45,8,0.00,0.00,9,3,18,0.00
2013-5-2,88.0,63.1,38.4,44.1,34.2,22.9,90,49,10,0.00,0.00,7,2,14,0.00
2013-5-3,86.6,63.8,38.9,50.3,43.2,34.1,90,53,17,0.00,0.00,9,3,18,0.00
2013-5-4,84.1,58.9,40.5,51.5,46.4,38.2,92,68,29,0.00,0.00,13,4,28,0.00
2013-5-5,63.3,57.7,53.1,49.5,48.5,47.8,85,72,60,0.00,0.00,8,4,23,0.00
2013-5-6,67.2,58.3,48.2,51.7,49.3,46.1,92,73,49,0.00,0.00,9,3,21,0.00
2013-5-7,68.7,58.1,48.3,53.4,50.5,46.3,93,77,55,0.00,0.00,9,3,22,0.00
2013-5-8,63.6,53.9,49.0,52.5,49.0,45.6,94,84,67,0.00,0.00,7,3,16,0.00
2013-5-9,66.3,54.4,44.7,52.1,48.0,42.7,94,80,59,0.00,0.00,6,3,17,0.00
2013-5-10,67.1,55.6,46.5,54.5,49.4,44.4,94,81,62,0.00,0.00,6,2,16,0.00
2013-5-11,74.7,56.4,45.8,56.7,49.8,43.6,95,80,53,0.00,0.00,8,3,16,0.00
2013-5-12,78.0,58.2,40.9,58.9,48.5,39.3,94,74,38,0.00,0.00,6,3,14,0.00
2013-5-13,83.8,62.3,45.5,58.4,50.9,44.2,95,71,36,0.00,0.00,6,2,14,0.00
2013-5-14,84.3,63.3,45.1,53.9,48.3,42.4,92,62,27,0.00,0.00,4,2,14,0.00
2013-5-15,75.6,58.0,38.6,48.3,43.8,36.5,92,64,34,0.00,0.00,6,2,16,0.00
2013-5-16,69.2,60.9,49.6,51.8,48.0,45.0,84,64,44,0.00,0.00,10,5,24,0.00
2013-5-17,68.4,55.3,38.6,47.6,42.7,36.4,93,67,35,0.00,0.00,9,3,25,0.00
2013-5-18,79.5,59.1,36.6,49.1,42.7,34.5,93,60,31,0.00,0.00,6,3,17,0.00
2013-5-19,82.0,63.0,40.3,49.2,41.7,27.2,92,54,15,0.00,0.00,9,3,17,0.00
2013-5-20,84.8,62.3,44.1,50.7,45.1,38.6,93,61,21,0.00,0.00,8,3,18,0.00
2013-5-21,71.7,57.2,43.1,46.6,41.7,31.4,91,61,25,0.00,0.00,9,4,25,0.00
2013-5-22,66.7,56.5,38.9,39.7,34.2,26.4,70,45,22,0.00,0.00,9,4,20,0.00
2013-5-23,72.2,54.5,35.5,42.8,38.1,32.5,90,59,26,0.00,0.00,8,2,19,0.00
2013-5-24,73.0,53.4,33.9,43.4,39.2,31.6,92,64,32,0.00,0.00,6,2,15,0.00
2013-5-25,74.6,56.0,36.2,46.4,41.9,33.7,91,63,34,0.00,0.00,6,3,17,0.00
2013-5-26,70.5,59.6,49.1,51.7,47.4,44.4,92,66,43,0.00,0.00,10,5,30,0.00
2013-5-27,62.1,55.1,46.7,54.9,50.0,43.5,93,83,69,0.00,0.00,6,2,15,0.00
2013-5-28,71.1,61.1,54.6,56.2,52.6,48.6,94,76,52,0.00,0.00,8,3,18,0.12
2013-5-29,73.4,63.1,52.0,53.1,49.9,45.9,84,64,37,0.00,0.00,7,4,18,0.00
2013-5-30,79.5,60.4,39.4,48.8,42.2,35.9,92,58,24,0.00,0.00,6,2,17,0.00
2013-5-31,86.6,65.4,41.8,61.5,45.9,38.9,90,56,21,0.00,0.00,6,2,15,0.00
2013-6-1,90.4,69.7,49.4,60.0,49.0,44.5,86,53,23,0.00,0.00,6,2,14,0.00
2013-6-2,73.2,57.8,49.5,52.8,47.7,40.6,85,70,49,0.00,0.00,4,2,11,0.00
2013-6-3,62.9,55.1,48.0,50.8,48.5,45.3,91,79,64,0.00,0.00,11,5,23,0.00
2013-6-4,60.2,54.4,52.8,50.4,49.5,48.9,88,83,69,0.00,0.00,10,4,21,0.00
2013-6-5,65.3,55.6,51.2,51.0,49.2,47.7,90,80,60,0.00,0.00,10,4,20,0.00
2013-6-6,67.4,56.2,50.7,52.2,49.7,47.5,92,80,58,0.00,0.00,7,3,17,0.00
2013-6-7,79.3,61.8,49.7,59.7,52.3,48.1,95,74,45,0.00,0.00,5,3,13,0.00
2013-6-8,79.2,62.2,51.6,58.7,52.8,48.4,90,73,46,0.00,0.00,12,4,28,0.00
2013-6-9,63.5,57.7,54.8,53.1,52.4,51.8,92,83,68,0.00,0.00,8,4,17,0.00
2013-6-10,60.6,57.4,54.8,54.5,52.9,51.4,93,85,72,0.00,0.00,5,2,12,0.00
2013-6-11,76.9,62.9,50.2,54.9,51.8,46.0,88,70,34,0.00,0.00,7,2,15,0.00
2013-6-12,83.0,60.4,37.1,49.6,41.4,23.9,93,59,18,0.00,0.00,7,2,18,0.00
2013-6-13,83.9,62.4,37.2,46.3,40.8,34.7,91,53,23,0.00,0.00,6,2,15,0.00
2013-6-14,82.0,62.7,44.7,49.2,45.2,39.6,90,60,23,0.00,0.00,8,3,16,0.00
2013-6-15,73.6,58.1,39.6,51.4,46.1,37.1,90,68,40,0.00,0.00,6,2,16,0.00
2013-6-16,83.8,62.8,39.2,51.2,44.7,36.8,92,59,26,0.00,0.00,8,3,20,0.00
2013-6-17,74.3,57.1,41.9,52.7,47.3,39.4,91,72,46,0.00,0.00,10,3,21,0.00
2013-6-18,69.6,60.2,47.6,50.0,46.9,43.1,90,64,38,0.00,0.00,9,4,22,0.00
2013-6-19,75.4,60.1,41.1,47.2,43.6,38.8,91,60,29,0.00,0.00,8,3,17,0.00
2013-6-20,79.7,61.8,40.8,47.6,43.1,37.9,91,57,27,0.00,0.00,7,3,20,0.00
2013-6-21,84.5,65.1,42.0,51.0,44.1,38.8,91,54,21,0.00,0.00,6,2,16,0.00
2013-6-22,89.0,68.4,43.8,51.0,45.5,40.9,89,52,22,0.00,0.00,6,3,21,0.00
2013-6-23,66.2,60.1,53.1,58.1,54.3,49.6,90,81,67,0.00,0.00,8,3,19,0.00
2013-6-24,60.9,57.9,55.1,56.4,54.5,52.6,93,89,83,0.00,0.00,4,2,10,0.00
2013-6-25,63.3,60.9,58.2,61.1,58.9,56.2,94,93,91,0.00,0.00,4,2,14,0.04
2013-6-26,75.2,65.9,60.2,64.5,61.0,58.1,94,85,66,0.00,0.00,6,3,13,1.46
2013-6-27,85.8,69.8,54.8,68.3,58.9,53.1,95,72,40,0.00,0.00,6,2,13,0.00
2013-6-28,91.2,73.0,55.2,69.9,60.1,53.1,94,68,36,0.00,0.00,5,2,16,0.00
2013-6-29,92.5,75.8,53.9,67.9,59.1,51.5,92,61,32,0.00,0.00,7,2,15,0.00
2013-6-30,86.1,71.9,54.3,61.7,57.1,51.1,90,62,40,0.00,0.00,5,2,12,0.00
2013-7-1,87.0,68.6,52.6,61.0,56.3,50.3,93,68,39,0.00,0.00,5,2,13,0.00
2013-7-2,80.9,65.8,57.1,60.5,56.2,54.3,91,73,48,0.00,0.00,13,4,28,0.00
2013-7-3,80.7,66.6,55.4,60.2,56.4,53.4,93,72,48,0.00,0.00,8,3,19,0.00
2013-7-4,95.5,73.5,59.9,62.5,55.0,40.1,84,58,17,0.00,0.00,9,3,20,0.00
2013-7-5,78.0,64.3,49.1,55.6,51.0,46.1,91,64,46,0.00,0.00,6,2,16,0.00
2013-7-6,53.7,48.7,48.1,49.2,46.3,45.8,92,91,85,0.00,0.00,1,0,4,0.00
2013-7-7,68.1,57.2,48.1,55.5,51.2,45.8,93,82,62,0.00,0.00,10,4,22,0.00
2013-7-8,70.3,58.3,51.3,56.7,52.2,49.4,93,82,58,0.00,0.00,8,4,19,0.00
2013-7-9,82.0,62.0,49.1,57.1,52.0,47.5,95,74,37,0.00,0.00,8,3,15,0.00
2013-7-10,67.0,56.9,49.1,54.9,50.2,47.2,94,80,58,0.00,0.00,9,4,21,0.00
2013-7-11,67.1,55.5,49.8,53.8,50.3,47.9,93,84,62,0.00,0.00,6,3,16,0.00
2013-7-12,69.5,58.0,51.9,54.7,51.0,48.9,91,79,57,0.00,0.00,9,3,17,0.00
2013-7-13,72.7,57.3,41.5,55.7,49.4,39.4,94,77,53,0.00,0.00,10,3,22,0.00
2013-7-14,68.4,57.3,51.3,54.1,51.1,49.3,93,81,59,0.00,0.00,6,3,17,0.00
2013-7-15,62.1,54.4,49.1,52.4,49.9,47.1,94,85,69,0.00,0.00,8,4,19,0.00
2013-7-16,64.9,57.1,50.9,55.8,51.9,47.5,90,83,70,0.00,0.00,6,3,14,0.00
2013-7-17,71.9,57.4,43.2,57.0,51.0,41.3,94,81,57,0.00,0.00,6,2,15,0.00
2013-7-18,71.2,58.9,52.6,57.1,53.1,50.3,95,82,59,0.00,0.00,5,3,16,0.00
2013-7-19,74.0,59.5,50.2,62.3,52.4,47.8,95,80,53,0.00,0.00,6,2,18,0.00
2013-7-20,73.5,58.4,49.5,57.5,51.5,47.2,95,80,56,0.00,0.00,7,3,18,0.00
2013-7-21,69.9,58.4,52.3,55.3,51.3,49.3,92,79,56,0.00,0.00,8,4,20,0.00
2013-7-22,54.6,54.1,52.3,51.6,51.2,49.4,91,90,89,0.00,0.00,3,1,9,0.00
2013-7-23,70.9,62.7,54.6,57.1,54.5,51.6,90,76,60,0.00,0.00,7,3,18,0.00
2013-7-24,74.7,61.6,53.5,56.5,53.5,51.1,94,77,52,0.00,0.00,7,3,16,0.00
2013-7-25,70.3,57.9,51.0,54.6,51.7,49.3,94,81,55,0.00,0.00,10,5,21,0.00
2013-7-26,68.3,56.6,51.3,55.6,51.6,49.5,94,85,64,0.00,0.00,10,4,23,0.00
2013-7-27,66.6,56.7,52.2,54.4,51.7,49.7,94,85,64,0.00,0.00,10,4,20,0.00
2013-7-28,62.5,55.1,51.4,54.6,51.2,49.6,94,87,71,0.00,0.00,10,4,22,0.00
2013-7-29,65.5,56.9,53.1,54.4,51.3,50.0,89,82,67,0.00,0.00,9,3,18,0.00
2013-7-30,64.2,56.8,53.0,54.8,52.0,50.2,93,84,68,0.00,0.00,8,3,21,0.00
2013-7-31,76.9,61.5,52.2,55.6,52.5,49.1,94,75,45,0.00,0.00,5,2,16,0.00
2013-8-1,79.3,57.6,38.4,54.2,46.8,36.2,92,72,37,0.00,0.00,5,2,12,0.00
2013-8-2,79.4,60.2,39.6,52.7,47.2,37.3,93,67,31,0.00,0.00,7,2,17,0.00
2013-8-3,68.1,55.1,45.2,54.4,49.5,42.8,94,83,61,0.00,0.00,10,3,23,0.00
2013-8-4,67.7,55.5,49.6,53.6,50.4,46.6,94,84,59,0.00,0.00,7,3,18,0.00
2013-8-5,64.7,55.7,48.1,53.5,50.1,45.8,92,82,66,0.00,0.00,10,3,20,0.00
2013-8-6,68.0,57.8,48.1,54.1,50.9,45.8,92,79,58,0.00,0.00,8,3,21,0.00
2013-8-7,66.5,59.6,55.0,55.3,53.4,51.5,91,80,64,0.00,0.00,7,3,16,0.00
2013-8-8,66.3,58.7,51.9,55.6,52.5,49.6,92,81,67,0.00,0.00,7,3,18,0.00
2013-8-9,67.7,57.2,50.5,54.8,51.8,48.0,93,83,63,0.00,0.00,7,3,18,0.00
2013-8-10,69.7,60.0,50.5,56.0,53.5,48.0,91,80,59,0.00,0.00,6,2,16,0.00
2013-8-11,71.2,59.0,53.4,57.3,53.6,50.7,94,83,57,0.00,0.00,6,2,15,0.00
2013-8-12,70.3,58.0,51.4,56.1,52.2,50.0,95,83,59,0.00,0.00,10,3,20,0.00
2013-8-13,79.3,62.3,51.3,63.8,53.1,49.8,95,76,42,0.00,0.00,7,3,16,0.00
2013-8-14,89.0,62.9,41.8,57.5,48.9,39.0,93,67,23,0.00,0.00,6,2,14,0.00
2013-8-15,84.8,65.5,46.8,62.4,55.6,44.5,92,73,45,0.00,0.00,8,3,17,0.00
2013-8-16,83.6,67.4,53.9,61.9,56.9,52.0,93,73,42,0.00,0.00,7,2,16,0.00
2013-8-17,89.6,69.2,46.2,57.7,53.0,43.5,92,62,30,0.00,0.00,4,2,12,0.00
2013-8-18,83.3,68.8,49.1,59.5,54.9,46.7,92,64,41,0.00,0.00,6,3,16,0.00
2013-8-19,77.7,64.8,54.3,58.9,54.9,51.1,92,73,44,0.00,0.00,10,4,25,0.00
2013-8-20,73.5,61.9,56.8,58.5,56.6,54.5,93,84,56,0.00,0.00,7,3,17,0.00
2013-8-21,69.6,60.9,50.6,55.7,53.3,47.3,89,77,56,0.00,0.00,7,4,16,0.00
2013-8-22,69.6,59.2,49.5,55.4,52.3,46.8,92,79,57,0.00,0.00,7,3,16,0.00
2013-8-23,72.3,60.2,47.3,56.1,52.3,44.8,92,77,55,0.00,0.00,6,2,14,0.00
2013-8-24,80.1,64.1,43.2,57.4,52.0,40.3,92,68,42,0.00,0.00,11,4,23,0.00
2013-8-25,62.9,55.9,54.7,57.4,52.8,51.9,90,89,82,0.00,0.00,2,0,9,0.00
2013-8-26,78.6,64.8,53.4,57.8,53.8,49.2,93,71,38,0.00,0.00,6,2,15,0.00
2013-8-27,82.9,62.6,43.4,55.2,49.5,40.7,92,68,35,0.00,0.00,7,2,16,0.00
2013-8-28,77.5,63.5,50.9,61.7,56.3,48.1,95,79,57,0.00,0.00,7,2,16,0.00
2013-8-29,81.1,66.9,55.1,61.5,58.2,52.8,93,76,46,0.00,0.00,7,2,15,0.00
2013-8-30,91.2,69.0,49.3,66.5,54.3,47.0,92,66,27,0.00,0.00,5,2,12,0.00
2013-8-31,82.9,63.9,47.6,56.8,52.4,44.9,92,71,30,0.00,0.00,6,2,15,0.00
2013-9-1,77.1,63.4,51.7,58.0,54.2,49.3,94,74,47,0.00,0.00,8,3,16,0.00
2013-9-2,78.3,66.1,51.1,60.2,56.9,48.8,92,74,51,0.00,0.00,8,3,17,0.00
2013-9-3,77.5,61.6,44.9,56.1,50.4,42.5,93,71,35,0.00,0.00,8,2,17,0.00
2013-9-4,78.8,61.7,43.5,55.9,50.1,41.1,92,70,42,0.00,0.00,7,2,18,0.00
2013-9-5,81.1,63.2,43.2,54.8,49.3,40.9,92,65,36,0.00,0.00,7,2,17,0.00
2013-9-6,90.0,66.4,44.0,53.6,46.1,37.4,91,58,16,0.00,0.00,6,2,16,0.00
2013-9-7,90.8,66.7,43.7,51.9,47.3,40.6,89,58,22,0.00,0.00,9,2,18,0.00
2013-9-8,82.0,63.1,49.6,63.5,52.6,48.0,95,73,34,0.00,0.00,5,3,17,0.00
2013-9-9,83.7,62.0,47.6,57.0,52.3,45.5,93,74,38,0.00,0.00,9,3,18,0.00
2013-9-10,68.7,60.7,55.4,58.4,56.7,53.7,94,87,68,0.00,0.00,8,3,18,0.00
2013-9-11,67.5,63.0,60.9,59.7,58.4,57.5,93,85,72,0.00,0.00,4,2,11,0.00
2013-9-12,74.6,63.6,53.9,59.8,57.1,51.6,92,80,54,0.00,0.00,6,2,14,0.00
2013-9-13,76.3,62.3,51.4,57.8,54.0,47.8,95,77,48,0.00,0.00,6,2,13,0.00
2013-9-14,79.0,59.6,46.5,57.4,51.8,44.2,94,78,47,0.00,0.00,4,2,11,0.00
2013-9-15,76.8,60.0,45.7,64.2,52.6,42.8,95,79,46,0.00,0.00,9,3,20,0.00
2013-9-16,82.6,62.1,48.0,58.0,51.7,46.0,95,74,34,0.00,0.00,6,2,13,0.00
2013-9-17,77.0,60.8,43.0,53.9,48.1,41.2,93,67,36,0.00,0.00,8,3,19,0.00
2013-9-18,81.7,61.0,42.6,49.3,44.2,40.1,91,63,24,0.00,0.00,7,2,17,0.00
2013-9-19,82.3,61.7,38.8,49.7,44.3,35.9,90,60,26,0.00,0.00,7,2,15,0.00
2013-9-20,74.5,54.1,36.4,60.4,46.9,33.8,91,78,54,0.00,0.00,7,3,19,0.00
2013-9-21,67.9,61.2,52.3,58.7,55.2,49.5,94,82,61,0.00,0.00,7,3,21,0.00
2013-9-22,72.7,58.1,42.5,53.2,49.1,41.0,95,75,46,0.00,0.00,6,2,15,0.39
2013-9-23,80.7,62.3,45.8,58.0,51.6,42.6,94,72,43,0.00,0.00,6,2,16,0.00
2013-9-24,76.3,62.0,50.7,53.6,49.0,43.3,93,67,31,0.00,0.00,7,3,20,0.00
2013-9-25,70.3,57.9,42.7,46.6,43.4,38.5,91,62,32,0.00,0.00,7,4,20,0.00
2013-9-26,75.8,56.3,36.9,50.7,39.9,32.4,92,62,25,0.00,0.00,6,2,14,0.00
2013-9-27,79.0,56.1,37.0,52.9,37.1,30.6,92,59,18,0.00,0.00,6,2,14,0.00
2013-9-28,77.7,57.4,38.4,53.6,42.4,34.1,92,66,21,0.00,0.00,6,2,17,0.00
2013-9-29,68.7,59.6,49.7,60.2,56.1,47.2,93,88,73,0.00,0.00,6,3,13,0.00
2013-9-30,61.4,61.2,60.6,59.7,59.5,58.9,95,94,93,0.00,0.00,2,2,8,0.01
2013-10-1,77.6,59.8,38.3,59.7,48.2,36.6,94,72,26,0.00,0.00,5,2,10,0.03
2013-10-2,77.1,57.0,41.9,57.0,42.0,31.7,94,65,25,0.00,0.00,5,2,13,0.00
2013-10-3,77.3,58.5,40.9,41.1,31.8,17.8,87,46,11,0.00,0.00,7,3,19,0.00
2013-10-4,83.2,66.9,45.3,46.7,26.9,18.9,69,28,10,0.00,0.00,7,3,19,0.00
2013-10-5,85.1,54.6,32.7,41.3,32.0,24.4,88,56,11,0.00,0.00,6,1,14,0.00
2013-10-6,84.3,56.0,32.4,46.8,34.0,27.2,90,55,14,0.00,0.00,5,1,12,0.00
2013-10-7,81.5,52.8,34.8,45.2,36.6,28.3,90,63,15,0.00,0.00,5,2,13,0.00
2013-10-8,74.9,52.1,35.5,46.0,39.5,31.6,92,68,28,0.00,0.00,5,1,12,0.00
2013-10-9,71.9,53.2,36.0,52.4,38.8,32.3,93,64,30,0.00,0.00,7,2,17,0.00
2013-10-10,68.3,51.4,39.0,49.5,41.5,35.6,89,72,40,0.00,0.00,9,3,19,0.00
2013-10-11,64.8,51.9,42.8,56.0,46.0,40.7,95,82,53,0.00,0.00,6,2,14,0.00
2013-10-12,69.3,49.9,34.7,55.1,41.7,32.8,95,77,43,0.00,0.00,5,2,13,0.00
2013-10-13,73.4,52.3,34.5,54.1,40.8,32.5,93,70,32,0.00,0.00,7,2,16,0.00
2013-10-14,78.4,52.9,33.0,52.4,36.3,30.8,92,63,20,0.00,0.00,6,1,15,0.00
2013-10-15,81.9,52.8,32.5,41.1,32.2,22.8,92,59,11,0.00,0.00,5,1,14,0.00
2013-10-16,81.9,49.5,32.4,38.2,31.7,27.2,90,63,14,0.00,0.00,5,1,12,0.00
2013-10-17,81.8,53.6,33.2,49.4,35.4,30.4,92,61,16,0.00,0.00,5,1,12,0.00
2013-10-18,73.6,51.0,32.8,50.4,39.9,30.5,93,71,35,0.00,0.00,7,2,14,0.00
2013-10-19,83.3,56.1,32.5,44.3,38.9,30.5,93,62,20,0.00,0.00,5,2,11,0.00
2013-10-20,73.3,50.6,32.4,52.9,41.7,30.6,94,76,38,0.00,0.00,5,2,15,0.00
2013-10-21,68.3,50.6,42.4,59.9,45.7,41.2,96,85,51,0.00,0.00,4,2,11,0.00
2013-10-22,73.1,51.3,40.4,50.3,44.7,39.2,96,81,41,0.00,0.00,5,2,11,0.00
2013-10-23,65.9,49.1,40.2,62.1,44.8,39.0,96,87,56,0.00,0.00,5,2,12,0.00
2013-10-24,65.6,50.4,41.1,48.2,45.2,38.4,95,84,52,0.00,0.00,5,2,15,0.00
2013-10-25,70.0,49.8,37.0,50.0,42.6,35.1,95,80,45,0.00,0.00,4,1,10,0.00
2013-10-26,78.8,51.1,32.8,47.1,40.2,30.6,93,72,29,0.00,0.00,7,2,13,0.00
2013-10-27,60.0,48.8,40.4,56.7,44.1,38.9,96,85,59,0.00,0.00,8,3,19,0.00
2013-10-28,64.4,48.8,32.8,44.0,39.1,30.6,93,73,41,0.00,0.00,5,2,14,0.00
2013-10-29,63.1,51.3,36.2,45.5,42.8,33.9,91,75,50,0.00,0.00,5,2,13,0.00
2013-10-30,65.9,46.7,31.9,53.1,38.2,30.1,94,76,42,0.00,0.00,6,1,13,0.00
2013-10-31,72.8,50.0,31.0,43.6,37.6,25.8,91,67,33,0.00,0.00,7,2,12,0.00
2013-11-1,79.5,49.3,33.0,45.2,36.9,28.6,91,70,24,0.00,0.00,4,1,9,0.00
2013-11-2,72.6,51.3,33.5,50.7,41.6,31.2,93,73,44,0.00,0.00,5,2,14,0.00
2013-11-3,65.7,45.8,28.2,42.0,30.1,21.2,93,63,18,0.00,0.00,5,2,13,0.00
2013-11-4,72.4,45.9,25.8,45.8,27.6,19.4,92,61,14,0.00,0.00,5,2,17,0.00
2013-11-5,75.6,49.0,29.5,41.3,32.6,23.5,91,62,19,0.00,0.00,6,2,14,0.00
2013-11-6,75.5,52.5,35.7,46.4,37.3,32.5,88,63,23,0.00,0.00,3,1,14,0.00
2013-11-7,73.3,53.7,41.3,48.1,39.6,29.1,91,65,26,0.00,0.00,6,2,13,0.00
2013-11-8,73.9,48.7,34.2,50.4,38.3,30.6,92,72,33,0.00,0.00,6,2,17,0.00
2013-11-9,74.9,50.4,31.4,53.2,41.2,30.1,96,77,29,0.00,0.00,6,2,17,0.00
2013-11-10,63.6,49.3,38.2,49.3,43.9,36.3,95,83,58,0.00,0.00,7,2,15,0.00
2013-11-11,68.2,52.7,40.1,48.5,44.8,37.7,93,77,43,0.00,0.00,2,1,8,0.00
2013-11-12,73.2,56.4,42.7,48.5,45.9,39.7,89,70,39,0.00,0.00,3,1,9,0.00
2013-11-13,75.6,51.3,35.1,51.5,43.3,32.8,94,77,43,0.00,0.00,7,1,14,0.00
2013-11-14,63.6,48.0,38.7,52.4,43.8,37.1,96,86,66,0.00,0.00,3,1,7,0.00
2013-11-15,66.6,45.3,30.1,40.9,34.2,28.3,94,71,30,0.00,0.00,5,2,13,0.00
2013-11-16,67.7,46.5,29.0,48.4,37.1,26.9,92,74,37,0.00,0.00,8,2,25,0.00
2013-11-17,62.1,44.5,31.8,47.2,39.1,30.2,95,83,54,0.00,0.00,3,1,9,0.00
2013-11-18,56.3,44.8,30.6,47.4,40.2,29.0,95,85,67,0.00,0.00,4,2,12,0.00
2013-11-19,55.6,52.5,48.5,54.1,50.9,45.0,95,94,85,0.00,0.00,3,1,9,0.00
2013-11-20,60.8,54.7,47.0,55.6,52.5,45.3,95,92,80,0.00,0.00,4,2,10,1.23
2013-11-21,62.8,55.5,48.7,55.3,31.5,12.2,95,53,14,0.00,0.00,10,4,26,0.00
2013-11-22,73.9,61.4,45.2,22.4,11.6,2.4,37,16,8,0.00,0.00,7,4,21,0.00
2013-11-23,67.1,52.5,32.9,33.5,24.9,10.1,88,40,13,0.00,0.00,5,2,13,0.00
2013-11-24,64.8,41.7,27.1,44.7,33.4,25.3,93,77,33,0.00,0.00,6,1,12,0.00
2013-11-25,65.0,42.8,29.4,42.8,34.7,28.0,95,77,36,0.00,0.00,2,1,9,0.00
2013-11-26,62.0,43.8,31.8,45.1,37.1,30.1,94,80,44,0.00,0.00,2,1,7,0.00
2013-11-27,66.5,45.4,29.9,48.5,37.5,28.3,94,77,41,0.00,0.00,4,1,10,0.00
2013-11-28,70.7,47.0,32.2,43.4,37.1,30.5,94,74,31,0.00,0.00,4,1,10,0.00
2013-11-29,70.8,46.2,30.6,46.0,36.8,28.8,94,75,31,0.00,0.00,3,1,9,0.00
2013-11-30,68.5,46.8,34.9,46.8,39.1,32.7,94,78,38,0.00,0.00,5,1,11,0.00
2013-12-1,70.6,46.8,31.2,46.5,38.6,29.5,94,77,38,0.00,0.00,4,1,8,0.00
2013-12-2,65.0,48.0,31.3,56.5,42.1,29.5,95,82,55,0.00,0.00,6,2,16,0.00
2013-12-3,56.1,48.4,31.5,51.0,31.4,23.5,86,55,29,0.00,0.00,8,4,20,0.00
2013-12-4,53.0,34.8,23.0,30.4,24.5,19.4,92,72,27,0.00,0.00,4,1,9,0.00
2013-12-5,50.0,31.6,18.8,34.7,23.4,16.4,92,75,35,0.00,0.00,4,1,12,0.00
2013-12-6,48.5,34.3,19.1,46.0,28.6,16.9,93,81,48,0.00,0.00,5,1,22,0.00
2013-12-7,46.6,36.4,26.2,43.3,28.2,17.6,95,76,35,0.00,0.00,7,2,18,0.00
2013-12-8,47.7,31.6,22.8,32.8,22.4,10.0,93,74,30,0.00,0.00,3,1,8,0.00
2013-12-9,52.0,31.6,18.4,33.6,21.8,14.2,92,73,30,0.00,0.00,4,1,8,0.00
2013-12-10,54.6,33.1,18.8,36.9,23.3,16.5,92,73,27,0.00,0.00,2,1,6,0.00
2013-12-11,58.7,35.5,22.7,32.1,27.0,20.7,93,75,35,0.00,0.00,2,1,7,0.00
2013-12-12,52.3,28.7,22.4,40.7,24.9,20.3,93,87,46,0.00,0.00,2,1,4,0.00
2013-12-13,63.0,41.5,23.8,37.2,30.5,21.9,92,70,31,0.00,0.00,5,1,11,0.00
2013-12-14,64.3,40.1,25.6,40.2,31.8,23.7,94,76,35,0.00,0.00,4,1,9,0.00
2013-12-15,64.4,39.6,24.7,46.9,31.6,23.1,94,78,35,0.00,0.00,2,1,6,0.00
2013-12-16,66.3,42.3,26.9,40.9,32.3,25.1,94,73,32,0.00,0.00,4,1,8,0.00
2013-12-17,67.2,43.4,26.6,46.9,33.3,24.6,93,73,34,0.00,0.00,2,1,6,0.00
2013-12-18,57.2,41.0,29.8,46.9,36.2,27.9,93,84,57,0.00,0.00,4,1,11,0.00
2013-12-19,62.0,47.3,32.2,35.2,27.0,10.4,93,52,19,0.00,0.00,6,3,17,0.00
2013-12-20,66.9,41.1,24.5,39.7,24.6,13.9,91,62,13,0.00,0.00,3,1,9,0.00
2013-12-21,66.2,45.7,32.6,47.8,38.6,30.6,93,79,44,0.00,0.00,4,2,9,0.00
2013-12-22,66.8,42.7,29.9,50.7,35.3,28.4,94,78,42,0.00,0.00,4,1,12,0.00
2013-12-23,67.3,42.9,28.1,42.9,34.0,26.1,94,75,36,0.00,0.00,3,1,7,0.00
2013-12-24,69.5,44.9,30.9,44.0,35.9,28.9,93,75,37,0.00,0.00,3,1,9,0.00
2013-12-25,32.8,30.0,28.9,30.5,28.0,27.1,94,92,91,0.00,0.00,0,0,3,0.00
2013-12-26,66.5,43.2,24.7,40.2,30.9,22.7,92,69,29,0.00,0.00,2,1,6,0.00
2013-12-27,56.6,37.4,26.2,42.3,30.3,24.1,92,79,42,0.00,0.00,2,1,6,0.00
2013-12-28,73.3,40.6,22.8,46.2,30.2,20.9,93,73,24,0.00,0.00,2,1,6,0.00
2013-12-29,67.4,40.2,24.2,41.8,27.1,21.9,92,68,18,0.00,0.00,4,1,10,0.00
2013-12-30,63.7,40.8,23.6,43.0,30.4,21.4,93,72,31,0.00,0.00,3,1,9,0.00
2013-12-31,63.8,41.3,30.1,50.5,35.2,28.4,95,82,39,0.00,0.00,4,1,7,0.00
2014-1-1,68.0,40.9,25.1,42.3,31.8,23.5,95,76,26,0.00,0.00,2,1,9,0.00
2014-1-2,66.0,42.7,28.1,40.8,32.8,26.0,94,73,31,0.00,0.00,3,1,7,0.00